LLM8991 UUEE-UMKK
Flight info
| Callsign | LLM8991 |
|---|---|
| Flight time | N/A |
| Altitude | 36000 |
| Route | TOKNU3H/24C TOKNU L4 NUDKO T561 ODATI P145 ATLUM DCT PISIS DCT ARANS/N0454F360 DCT PIDIN DCT PISIM DCT PIRUX DCT PIVAX/N0458F370 DCT GARSO DCT AGONA DCT TURIP TURIP3F |
| Aircraft | A320/M-SDE3FGHIRWY/LB1 |
Departure
| Time | N/A |
|---|---|
| Airport | Sheremetyevo International Airport (UUEE) |
Arrival
| Time | 2026-05-08 20:18 |
|---|---|
| Airport | Khrabrovo Airport (UMKK) |
| Time | Latitude | Longitude | Altitude | Speed | Heading |
|---|---|---|---|---|---|
| 2026-05-08 18:53 | 59.95950 | 27.30709 | 36409 ft | 422 kts | 297° |
| 2026-05-08 18:53 | 59.97390 | 27.25585 | 36412 ft | 423 kts | 297° |
| 2026-05-08 18:54 | 60.00265 | 27.15334 | 36418 ft | 423 kts | 297° |
| 2026-05-08 18:54 | 60.02961 | 27.04902 | 36420 ft | 420 kts | 288° |
| 2026-05-08 18:55 | 60.04017 | 26.93519 | 36414 ft | 417 kts | 270° |
| 2026-05-08 18:55 | 60.03820 | 26.87731 | 36413 ft | 417 kts | 261° |
| 2026-05-08 18:56 | 60.02625 | 26.76386 | 36405 ft | 417 kts | 258° |
| 2026-05-08 18:56 | 60.01372 | 26.65064 | 36403 ft | 418 kts | 258° |
| 2026-05-08 18:57 | 60.00115 | 26.53724 | 36401 ft | 418 kts | 258° |
| 2026-05-08 18:57 | 59.98848 | 26.42389 | 36402 ft | 418 kts | 257° |
| 2026-05-08 18:58 | 59.97564 | 26.31048 | 36399 ft | 419 kts | 257° |
| 2026-05-08 18:58 | 59.96281 | 26.19790 | 36397 ft | 419 kts | 257° |
| 2026-05-08 18:59 | 59.94977 | 26.08450 | 36399 ft | 419 kts | 257° |
| 2026-05-08 18:59 | 59.93664 | 25.97120 | 36396 ft | 419 kts | 257° |
| 2026-05-08 19:00 | 59.92564 | 25.87705 | 36397 ft | 419 kts | 257° |
| 2026-05-08 19:00 | 59.91235 | 25.76393 | 36398 ft | 419 kts | 257° |
| 2026-05-08 19:01 | 59.89897 | 25.65073 | 36393 ft | 419 kts | 256° |
| 2026-05-08 19:01 | 59.88544 | 25.53773 | 36394 ft | 419 kts | 256° |
| 2026-05-08 19:02 | 59.87184 | 25.42476 | 36395 ft | 420 kts | 256° |
| 2026-05-08 19:02 | 59.85825 | 25.31254 | 36393 ft | 420 kts | 256° |
| 2026-05-08 19:03 | 59.84448 | 25.19957 | 36395 ft | 420 kts | 256° |
| 2026-05-08 19:03 | 59.83055 | 25.08653 | 36396 ft | 420 kts | 256° |
| 2026-05-08 19:04 | 59.81648 | 24.97371 | 36394 ft | 420 kts | 256° |
| 2026-05-08 19:04 | 59.80236 | 24.86109 | 36390 ft | 420 kts | 256° |
| 2026-05-08 19:05 | 59.78825 | 24.74919 | 36388 ft | 420 kts | 256° |
| 2026-05-08 19:05 | 59.77403 | 24.63671 | 36393 ft | 420 kts | 255° |
| 2026-05-08 19:06 | 59.75965 | 24.52428 | 36397 ft | 420 kts | 255° |
| 2026-05-08 19:06 | 59.74481 | 24.41204 | 36395 ft | 420 kts | 254° |
| 2026-05-08 19:07 | 59.72822 | 24.30100 | 36394 ft | 420 kts | 252° |
| 2026-05-08 19:07 | 59.71092 | 24.19038 | 36392 ft | 420 kts | 252° |
| 2026-05-08 19:08 | 59.69376 | 24.08002 | 36390 ft | 419 kts | 252° |
| 2026-05-08 19:08 | 59.67685 | 23.97026 | 36388 ft | 419 kts | 252° |
| 2026-05-08 19:09 | 59.65989 | 23.86002 | 36387 ft | 419 kts | 252° |
| 2026-05-08 19:09 | 59.64274 | 23.74977 | 36388 ft | 420 kts | 252° |
| 2026-05-08 19:10 | 59.62542 | 23.63954 | 36391 ft | 420 kts | 252° |
| 2026-05-08 19:10 | 59.60801 | 23.52929 | 36394 ft | 421 kts | 252° |
| 2026-05-08 19:11 | 59.59058 | 23.41902 | 36393 ft | 421 kts | 252° |
| 2026-05-08 19:11 | 59.57307 | 23.30894 | 36392 ft | 420 kts | 251° |
| 2026-05-08 19:12 | 59.55531 | 23.19916 | 36390 ft | 421 kts | 251° |
| 2026-05-08 19:12 | 59.53249 | 23.09327 | 36392 ft | 420 kts | 244° |
| 2026-05-08 19:13 | 59.50743 | 22.98941 | 36391 ft | 420 kts | 244° |
| 2026-05-08 19:13 | 59.48234 | 22.88544 | 36393 ft | 420 kts | 244° |
| 2026-05-08 19:14 | 59.45737 | 22.78226 | 36397 ft | 420 kts | 244° |
| 2026-05-08 19:14 | 59.43218 | 22.67852 | 36398 ft | 421 kts | 244° |
| 2026-05-08 19:15 | 59.40684 | 22.57486 | 36395 ft | 421 kts | 243° |
| 2026-05-08 19:15 | 59.38135 | 22.47143 | 36396 ft | 421 kts | 243° |
| 2026-05-08 19:16 | 59.35578 | 22.36815 | 36395 ft | 421 kts | 243° |
| 2026-05-08 19:16 | 59.33015 | 22.26503 | 36396 ft | 421 kts | 243° |
| 2026-05-08 19:17 | 59.30444 | 22.16207 | 36393 ft | 421 kts | 243° |
| 2026-05-08 19:17 | 59.27868 | 22.05927 | 36392 ft | 421 kts | 243° |
| 2026-05-08 19:18 | 59.25287 | 21.95666 | 36388 ft | 421 kts | 242° |
| 2026-05-08 19:18 | 59.22718 | 21.85484 | 36387 ft | 421 kts | 242° |
| 2026-05-08 19:19 | 59.20117 | 21.75249 | 36384 ft | 421 kts | 242° |
| 2026-05-08 19:19 | 59.17508 | 21.65026 | 36380 ft | 421 kts | 242° |
| 2026-05-08 19:20 | 59.14889 | 21.54807 | 36383 ft | 422 kts | 242° |
| 2026-05-08 19:20 | 59.12252 | 21.44578 | 36379 ft | 422 kts | 242° |
| 2026-05-08 19:21 | 59.09601 | 21.34357 | 36381 ft | 423 kts | 242° |
| 2026-05-08 19:21 | 59.06834 | 21.24388 | 36378 ft | 421 kts | 233° |
| 2026-05-08 19:22 | 59.02697 | 21.16456 | 36376 ft | 419 kts | 213° |
| 2026-05-08 19:22 | 58.97414 | 21.11759 | 36372 ft | 420 kts | 199° |
| 2026-05-08 19:23 | 58.91858 | 21.08186 | 36371 ft | 421 kts | 199° |
| 2026-05-08 19:23 | 58.86300 | 21.04622 | 36376 ft | 421 kts | 199° |
| 2026-05-08 19:24 | 58.80740 | 21.01063 | 36376 ft | 421 kts | 199° |
| 2026-05-08 19:24 | 58.75173 | 20.97510 | 36376 ft | 421 kts | 199° |
| 2026-05-08 19:25 | 58.69607 | 20.93988 | 36380 ft | 421 kts | 199° |
| 2026-05-08 19:25 | 58.64030 | 20.90460 | 36375 ft | 421 kts | 199° |
| 2026-05-08 19:26 | 58.58494 | 20.86954 | 36376 ft | 422 kts | 199° |
| 2026-05-08 19:26 | 58.52916 | 20.83462 | 36375 ft | 422 kts | 198° |
| 2026-05-08 19:27 | 58.47339 | 20.79971 | 36372 ft | 422 kts | 198° |
| 2026-05-08 19:27 | 58.41759 | 20.76497 | 36370 ft | 422 kts | 198° |
| 2026-05-08 19:28 | 58.36182 | 20.73015 | 36366 ft | 422 kts | 198° |
| 2026-05-08 19:28 | 58.30603 | 20.69546 | 36362 ft | 422 kts | 198° |
| 2026-05-08 19:29 | 58.25026 | 20.66096 | 36359 ft | 422 kts | 198° |
| 2026-05-08 19:29 | 58.20972 | 20.63597 | 36355 ft | 422 kts | 198° |
| 2026-05-08 19:30 | 58.15389 | 20.60173 | 36351 ft | 422 kts | 198° |
| 2026-05-08 19:30 | 58.09799 | 20.56744 | 36349 ft | 422 kts | 198° |
| 2026-05-08 19:31 | 58.04198 | 20.53315 | 36351 ft | 423 kts | 198° |
| 2026-05-08 19:31 | 57.98599 | 20.49903 | 36347 ft | 423 kts | 198° |
| 2026-05-08 19:32 | 57.92849 | 20.47922 | 36345 ft | 423 kts | 180° |
| 2026-05-08 19:32 | 57.86966 | 20.48089 | 36332 ft | 423 kts | 180° |
| 2026-05-08 19:33 | 57.81788 | 20.48263 | 36333 ft | 423 kts | 180° |
| 2026-05-08 19:33 | 57.75898 | 20.48449 | 36323 ft | 424 kts | 180° |
| 2026-05-08 19:34 | 57.70002 | 20.48633 | 36321 ft | 424 kts | 180° |
| 2026-05-08 19:34 | 57.64101 | 20.48827 | 36317 ft | 424 kts | 180° |
| 2026-05-08 19:35 | 57.58202 | 20.49005 | 36314 ft | 424 kts | 180° |
| 2026-05-08 19:35 | 57.52286 | 20.49183 | 36314 ft | 425 kts | 180° |
| 2026-05-08 19:36 | 57.46373 | 20.49369 | 36305 ft | 425 kts | 179° |
| 2026-05-08 19:36 | 57.40759 | 20.49550 | 36304 ft | 425 kts | 179° |
| 2026-05-08 19:37 | 57.35650 | 20.49703 | 36302 ft | 426 kts | 180° |
| 2026-05-08 19:37 | 57.29790 | 20.49879 | 36304 ft | 426 kts | 179° |
| 2026-05-08 19:38 | 57.23853 | 20.50052 | 36302 ft | 427 kts | 179° |
| 2026-05-08 19:38 | 57.17910 | 20.50232 | 36303 ft | 427 kts | 179° |
| 2026-05-08 19:39 | 57.11961 | 20.50416 | 36298 ft | 427 kts | 179° |
| 2026-05-08 19:39 | 57.06010 | 20.50597 | 36298 ft | 428 kts | 179° |
| 2026-05-08 19:40 | 57.00053 | 20.50771 | 36295 ft | 428 kts | 179° |
| 2026-05-08 19:40 | 56.94088 | 20.50948 | 36296 ft | 428 kts | 179° |
| 2026-05-08 19:41 | 56.88135 | 20.51118 | 36290 ft | 428 kts | 179° |
| 2026-05-08 19:41 | 56.82174 | 20.51302 | 36285 ft | 428 kts | 179° |
| 2026-05-08 19:42 | 56.76247 | 20.51480 | 36278 ft | 428 kts | 179° |
| 2026-05-08 19:43 | 56.71585 | 20.51619 | 36280 ft | 428 kts | 179° |
| 2026-05-08 19:44 | 56.65619 | 20.51797 | 36278 ft | 429 kts | 179° |
| 2026-05-08 19:44 | 56.59656 | 20.51965 | 36270 ft | 429 kts | 179° |
| 2026-05-08 19:45 | 56.53679 | 20.52136 | 36267 ft | 429 kts | 179° |
| 2026-05-08 19:45 | 56.47702 | 20.52312 | 36263 ft | 430 kts | 179° |
| 2026-05-08 19:46 | 56.41712 | 20.52493 | 36263 ft | 430 kts | 179° |
| 2026-05-08 19:46 | 56.32717 | 20.52735 | 36258 ft | 431 kts | 179° |
| 2026-05-08 19:47 | 56.26715 | 20.52895 | 36256 ft | 432 kts | 179° |
| 2026-05-08 19:47 | 56.20745 | 20.53081 | 36177 ft | 433 kts | 179° |
| 2026-05-08 19:48 | 56.17742 | 20.53176 | 35798 ft | 432 kts | 179° |
| 2026-05-08 19:48 | 56.14732 | 20.53263 | 34944 ft | 433 kts | 178° |
| 2026-05-08 19:48 | 56.11722 | 20.53341 | 34085 ft | 432 kts | 178° |
| 2026-05-08 19:48 | 56.08727 | 20.53418 | 33181 ft | 429 kts | 178° |
| 2026-05-08 19:49 | 56.05738 | 20.53504 | 32254 ft | 428 kts | 177° |
| 2026-05-08 19:49 | 56.02758 | 20.53596 | 31280 ft | 429 kts | 176° |
| 2026-05-08 19:49 | 55.99775 | 20.53687 | 30356 ft | 429 kts | 176° |
| 2026-05-08 19:49 | 55.96783 | 20.53776 | 29205 ft | 430 kts | 176° |
| 2026-05-08 19:50 | 55.93787 | 20.53863 | 28097 ft | 432 kts | 176° |
| 2026-05-08 19:50 | 55.90778 | 20.53947 | 26993 ft | 433 kts | 177° |
| 2026-05-08 19:50 | 55.87748 | 20.54028 | 25813 ft | 437 kts | 177° |
| 2026-05-08 19:50 | 55.84696 | 20.54108 | 24677 ft | 441 kts | 177° |
| 2026-05-08 19:51 | 55.81613 | 20.54194 | 23525 ft | 444 kts | 178° |
| 2026-05-08 19:51 | 55.78510 | 20.54282 | 22402 ft | 445 kts | 178° |
| 2026-05-08 19:51 | 55.75470 | 20.54363 | 21590 ft | 439 kts | 177° |
| 2026-05-08 19:51 | 55.72427 | 20.54445 | 20756 ft | 436 kts | 178° |
| 2026-05-08 19:52 | 55.69367 | 20.54527 | 19903 ft | 433 kts | 178° |
| 2026-05-08 19:52 | 55.66364 | 20.54607 | 19090 ft | 431 kts | 178° |
| 2026-05-08 19:52 | 55.63411 | 20.54686 | 18254 ft | 429 kts | 178° |
| 2026-05-08 19:52 | 55.60432 | 20.54767 | 17422 ft | 426 kts | 177° |
| 2026-05-08 19:53 | 55.57485 | 20.54847 | 16679 ft | 422 kts | 177° |
| 2026-05-08 19:53 | 55.54563 | 20.54928 | 15937 ft | 418 kts | 177° |
| 2026-05-08 19:53 | 55.51660 | 20.55011 | 15226 ft | 415 kts | 177° |
| 2026-05-08 19:53 | 55.48782 | 20.55095 | 14525 ft | 412 kts | 176° |
| 2026-05-08 19:54 | 55.45924 | 20.55180 | 13826 ft | 409 kts | 176° |
| 2026-05-08 19:54 | 55.44046 | 20.55233 | 13345 ft | 404 kts | 176° |
| 2026-05-08 19:54 | 55.41314 | 20.55301 | 12716 ft | 381 kts | 177° |
| 2026-05-08 19:54 | 55.38709 | 20.55377 | 12206 ft | 363 kts | 176° |
| 2026-05-08 19:55 | 55.36285 | 20.55516 | 12051 ft | 334 kts | 175° |
| 2026-05-08 19:55 | 55.34054 | 20.55690 | 11919 ft | 308 kts | 174° |
| 2026-05-08 19:55 | 55.32012 | 20.56071 | 11795 ft | 284 kts | 165° |
| 2026-05-08 19:55 | 55.30169 | 20.56957 | 11548 ft | 266 kts | 156° |
| 2026-05-08 19:56 | 55.28503 | 20.58257 | 11303 ft | 259 kts | 149° |
| 2026-05-08 19:56 | 55.26893 | 20.59662 | 11198 ft | 258 kts | 150° |
| 2026-05-08 19:56 | 55.25276 | 20.61051 | 11205 ft | 259 kts | 150° |
| 2026-05-08 19:56 | 55.23650 | 20.62435 | 11181 ft | 259 kts | 150° |
| 2026-05-08 19:57 | 55.22036 | 20.63804 | 11166 ft | 258 kts | 150° |
| 2026-05-08 19:57 | 55.20439 | 20.65234 | 11197 ft | 257 kts | 143° |
| 2026-05-08 19:57 | 55.19093 | 20.67240 | 11204 ft | 252 kts | 126° |
| 2026-05-08 19:57 | 55.18157 | 20.69747 | 11204 ft | 248 kts | 111° |
| 2026-05-08 19:58 | 55.17533 | 20.72545 | 11205 ft | 247 kts | 107° |
| 2026-05-08 19:58 | 55.16924 | 20.75341 | 11208 ft | 247 kts | 108° |
| 2026-05-08 19:58 | 55.16309 | 20.78146 | 11205 ft | 247 kts | 108° |
| 2026-05-08 19:58 | 55.15594 | 20.80881 | 11205 ft | 249 kts | 119° |
| 2026-05-08 19:59 | 55.14464 | 20.83204 | 11210 ft | 254 kts | 136° |
| 2026-05-08 19:59 | 55.13084 | 20.85143 | 11210 ft | 255 kts | 137° |
| 2026-05-08 19:59 | 55.11694 | 20.87092 | 11211 ft | 255 kts | 137° |
| 2026-05-08 19:59 | 55.10315 | 20.89037 | 11210 ft | 255 kts | 137° |
| 2026-05-08 20:00 | 55.08898 | 20.90906 | 11208 ft | 257 kts | 145° |
| 2026-05-08 20:00 | 55.07265 | 20.92133 | 11214 ft | 262 kts | 162° |
| 2026-05-08 20:00 | 55.05460 | 20.92690 | 11213 ft | 264 kts | 168° |
| 2026-05-08 20:00 | 55.03627 | 20.92990 | 11209 ft | 267 kts | 182° |
| 2026-05-08 20:01 | 55.02541 | 20.92610 | 11209 ft | 270 kts | 198° |
| 2026-05-08 20:01 | 55.00941 | 20.90891 | 11214 ft | 274 kts | 225° |
| 2026-05-08 20:01 | 54.99892 | 20.88119 | 10873 ft | 279 kts | 253° |
| 2026-05-08 20:01 | 54.99670 | 20.84812 | 10516 ft | 274 kts | 278° |
| 2026-05-08 20:02 | 54.99881 | 20.81523 | 10184 ft | 274 kts | 279° |
| 2026-05-08 20:02 | 55.00089 | 20.78227 | 9817 ft | 274 kts | 279° |
| 2026-05-08 20:02 | 55.00290 | 20.74944 | 9517 ft | 270 kts | 279° |
| 2026-05-08 20:02 | 55.00477 | 20.71744 | 9322 ft | 263 kts | 279° |
| 2026-05-08 20:03 | 55.00629 | 20.68594 | 9026 ft | 260 kts | 271° |
| 2026-05-08 20:03 | 55.00178 | 20.65587 | 8738 ft | 257 kts | 238° |
| 2026-05-08 20:03 | 54.98972 | 20.63387 | 8447 ft | 249 kts | 207° |
| 2026-05-08 20:03 | 54.97664 | 20.62536 | 8222 ft | 240 kts | 182° |
| 2026-05-08 20:04 | 54.96337 | 20.62258 | 7989 ft | 239 kts | 182° |
| 2026-05-08 20:04 | 54.94693 | 20.61881 | 7704 ft | 238 kts | 184° |
| 2026-05-08 20:04 | 54.93060 | 20.61488 | 7430 ft | 236 kts | 184° |
| 2026-05-08 20:04 | 54.91439 | 20.61092 | 7147 ft | 235 kts | 184° |
| 2026-05-08 20:05 | 54.89824 | 20.60700 | 6881 ft | 233 kts | 183° |
| 2026-05-08 20:05 | 54.88218 | 20.60314 | 6596 ft | 232 kts | 183° |
| 2026-05-08 20:05 | 54.86623 | 20.59931 | 6309 ft | 232 kts | 185° |
| 2026-05-08 20:05 | 54.85093 | 20.58932 | 6113 ft | 248 kts | 213° |
| 2026-05-08 20:06 | 54.83965 | 20.56652 | 5985 ft | 254 kts | 246° |
| 2026-05-08 20:06 | 54.83667 | 20.53748 | 5848 ft | 242 kts | 279° |
| 2026-05-08 20:06 | 54.84214 | 20.51068 | 5723 ft | 234 kts | 310° |
| 2026-05-08 20:06 | 54.85383 | 20.49221 | 5585 ft | 225 kts | 339° |
| 2026-05-08 20:07 | 54.86848 | 20.48528 | 5463 ft | 215 kts | 5° |
| 2026-05-08 20:07 | 54.88280 | 20.49006 | 5330 ft | 207 kts | 30° |
| 2026-05-08 20:07 | 54.89494 | 20.50296 | 5204 ft | 205 kts | 38° |
| 2026-05-08 20:07 | 54.90687 | 20.51650 | 5078 ft | 205 kts | 38° |
| 2026-05-08 20:08 | 54.91883 | 20.52997 | 4949 ft | 205 kts | 37° |
| 2026-05-08 20:08 | 54.93076 | 20.54341 | 4814 ft | 204 kts | 37° |
| 2026-05-08 20:08 | 54.94276 | 20.55681 | 4663 ft | 206 kts | 33° |
| 2026-05-08 20:08 | 54.95658 | 20.56360 | 4391 ft | 211 kts | 3° |
| 2026-05-08 20:09 | 54.97086 | 20.55635 | 4303 ft | 223 kts | 329° |
| 2026-05-08 20:09 | 54.98089 | 20.53551 | 4243 ft | 232 kts | 292° |
| 2026-05-08 20:09 | 54.98222 | 20.50839 | 4191 ft | 221 kts | 254° |
| 2026-05-08 20:09 | 54.97628 | 20.48445 | 4136 ft | 214 kts | 241° |
| 2026-05-08 20:10 | 54.96972 | 20.46131 | 4092 ft | 213 kts | 242° |
| 2026-05-08 20:10 | 54.96321 | 20.43816 | 4037 ft | 212 kts | 242° |
| 2026-05-08 20:10 | 54.95675 | 20.41509 | 3995 ft | 212 kts | 242° |
| 2026-05-08 20:10 | 54.95025 | 20.39205 | 3940 ft | 212 kts | 242° |
| 2026-05-08 20:11 | 54.94375 | 20.36900 | 3901 ft | 212 kts | 242° |
| 2026-05-08 20:11 | 54.93726 | 20.34595 | 3849 ft | 212 kts | 242° |
| 2026-05-08 20:11 | 54.93078 | 20.32296 | 3799 ft | 211 kts | 242° |
| 2026-05-08 20:11 | 54.92426 | 20.30010 | 3748 ft | 211 kts | 238° |
| 2026-05-08 20:12 | 54.91434 | 20.28240 | 3693 ft | 203 kts | 203° |
| 2026-05-08 20:12 | 54.90119 | 20.27685 | 3653 ft | 194 kts | 171° |
| 2026-05-08 20:12 | 54.88891 | 20.28319 | 3652 ft | 174 kts | 142° |
| 2026-05-08 20:12 | 54.88077 | 20.29657 | 3605 ft | 153 kts | 122° |
| 2026-05-08 20:13 | 54.87441 | 20.31053 | 3516 ft | 143 kts | 124° |
| 2026-05-08 20:13 | 54.86832 | 20.32368 | 3360 ft | 138 kts | 123° |
| 2026-05-08 20:13 | 54.86236 | 20.33655 | 3177 ft | 136 kts | 123° |
| 2026-05-08 20:13 | 54.85646 | 20.34935 | 2981 ft | 136 kts | 123° |
| 2026-05-08 20:14 | 54.85055 | 20.36214 | 2773 ft | 136 kts | 123° |
| 2026-05-08 20:14 | 54.84520 | 20.37532 | 2563 ft | 134 kts | 111° |
| 2026-05-08 20:14 | 54.84246 | 20.39047 | 2355 ft | 131 kts | 94° |
| 2026-05-08 20:14 | 54.84262 | 20.40606 | 2149 ft | 129 kts | 73° |
| 2026-05-08 20:15 | 54.84604 | 20.42044 | 1958 ft | 129 kts | 68° |
| 2026-05-08 20:15 | 54.84941 | 20.43484 | 1795 ft | 129 kts | 66° |
| 2026-05-08 20:15 | 54.85294 | 20.44914 | 1730 ft | 128 kts | 65° |
| 2026-05-08 20:15 | 54.85652 | 20.46327 | 1746 ft | 127 kts | 65° |
| 2026-05-08 20:16 | 54.86015 | 20.47737 | 1720 ft | 128 kts | 65° |
| 2026-05-08 20:16 | 54.86379 | 20.49144 | 1679 ft | 128 kts | 64° |
| 2026-05-08 20:16 | 54.86751 | 20.50560 | 1385 ft | 130 kts | 65° |
| 2026-05-08 20:16 | 54.87131 | 20.51984 | 1027 ft | 130 kts | 65° |
| 2026-05-08 20:17 | 54.87504 | 20.53447 | 593 ft | 137 kts | 65° |
| 2026-05-08 20:17 | 54.87900 | 20.54940 | 360 ft | 135 kts | 64° |
| 2026-05-08 20:17 | 54.88296 | 20.56431 | 204 ft | 135 kts | 68° |
| 2026-05-08 20:17 | 54.88678 | 20.57935 | 25 ft | 135 kts | 65° |
| 2026-05-08 20:18 | 54.89060 | 20.59404 | 27 ft | 119 kts | 66° |
| 2026-05-08 20:18 | 54.89330 | 20.60482 | 24 ft | 82 kts | 66° |
| 2026-05-08 20:18 | 54.89513 | 20.61211 | 21 ft | 56 kts | 66° |
| 2026-05-08 20:18 | 54.89644 | 20.61712 | 25 ft | 28 kts | 66° |
| 2026-05-08 20:19 | 54.89716 | 20.62008 | 26 ft | 22 kts | 75° |
| 2026-05-08 20:19 | 54.89760 | 20.62158 | 24 ft | 6 kts | 337° |
| 2026-05-08 20:19 | 54.89763 | 20.62137 | 24 ft | 5 kts | 276° |
| 2026-05-08 20:19 | 54.89706 | 20.61943 | 25 ft | 23 kts | 245° |
| 2026-05-08 20:20 | 54.89638 | 20.61689 | 23 ft | 23 kts | 246° |
| 2026-05-08 20:20 | 54.89569 | 20.61430 | 23 ft | 24 kts | 245° |
| 2026-05-08 20:20 | 54.89548 | 20.61345 | 21 ft | 23 kts | 248° |
| 2026-05-08 20:21 | 54.89533 | 20.61275 | 22 ft | 23 kts | 251° |
| 2026-05-08 20:21 | 54.89510 | 20.61178 | 23 ft | 14 kts | 244° |
| 2026-05-08 20:22 | 54.89464 | 20.61002 | 21 ft | 16 kts | 245° |
| 2026-05-08 20:22 | 54.89418 | 20.60826 | 21 ft | 16 kts | 247° |
| 2026-05-08 20:22 | 54.89371 | 20.60648 | 22 ft | 19 kts | 246° |
| 2026-05-08 20:22 | 54.89331 | 20.60491 | 24 ft | 21 kts | 242° |
| 2026-05-08 20:23 | 54.89253 | 20.60189 | 22 ft | 20 kts | 245° |
| 2026-05-08 20:23 | 54.89196 | 20.59974 | 21 ft | 19 kts | 246° |
| 2026-05-08 20:23 | 54.89136 | 20.59744 | 22 ft | 22 kts | 244° |
| 2026-05-08 20:23 | 54.89077 | 20.59520 | 25 ft | 19 kts | 246° |
| 2026-05-08 20:24 | 54.89054 | 20.59434 | 25 ft | 18 kts | 243° |
| 2026-05-08 20:24 | 54.88993 | 20.59244 | 27 ft | 17 kts | 233° |
| 2026-05-08 20:24 | 54.88908 | 20.59117 | 25 ft | 13 kts | 211° |
| 2026-05-08 20:24 | 54.88857 | 20.59075 | 28 ft | 4 kts | 205° |
| 2026-05-08 20:25 | 54.88853 | 20.59071 | 27 ft | 2 kts | 206° |
| 2026-05-08 20:25 | 54.88784 | 20.59007 | 28 ft | 15 kts | 208° |
| 2026-05-08 20:25 | 54.88724 | 20.58942 | 26 ft | 7 kts | 225° |
| 2026-05-08 20:25 | 54.88696 | 20.58854 | 26 ft | 11 kts | 249° |
| 2026-05-08 20:26 | 54.88668 | 20.58766 | 26 ft | 6 kts | 220° |
| 2026-05-08 20:26 | 54.88624 | 20.58765 | 27 ft | 12 kts | 160° |
| 2026-05-08 20:26 | 54.88548 | 20.58820 | 27 ft | 7 kts | 171° |
| 2026-05-08 20:26 | 54.88521 | 20.58794 | 27 ft | 3 kts | 229° |
| 2026-05-08 20:27 | 54.88496 | 20.58705 | 27 ft | 8 kts | 246° |
| 2026-05-08 20:27 | 54.88483 | 20.58653 | 27 ft | 0 kts | 245° |
| 2026-05-08 20:27 | 54.88471 | 20.58609 | 27 ft | 11 kts | 245° |
| 2026-05-08 20:27 | 54.88446 | 20.58514 | 27 ft | 6 kts | 245° |
| 2026-05-08 20:28 | 54.88436 | 20.58478 | 27 ft | 2 kts | 241° |
| 2026-05-08 20:28 | 54.88408 | 20.58447 | 27 ft | 4 kts | 194° |
| 2026-05-08 20:28 | 54.88398 | 20.58447 | 27 ft | 5 kts | 173° |
| 2026-05-08 20:28 | 54.88379 | 20.58460 | 27 ft | 1 kts | 156° |
| 2026-05-08 20:29 | 54.88373 | 20.58464 | 27 ft | 3 kts | 156° |
| 2026-05-08 20:29 | 54.88365 | 20.58471 | 27 ft | 0 kts | 155° |